createdAt,value
2019-01-24T00:00:34.081Z,21.10
2019-01-24T00:03:37.353Z,20.97
2019-01-24T00:06:40.613Z,22.90
2019-01-24T00:09:43.865Z,21.23
2019-01-24T00:12:53.777Z,20.30
2019-01-24T00:15:57.035Z,21.17
2019-01-24T00:19:00.305Z,21.10
2019-01-24T00:22:05.479Z,20.17
2019-01-24T00:25:10.026Z,20.67
2019-01-24T00:28:14.220Z,21.97
2019-01-24T00:31:17.470Z,22.47
2019-01-24T00:34:23.326Z,22.53
2019-01-24T00:37:25.719Z,21.67
2019-01-24T00:40:28.987Z,20.53
2019-01-24T00:43:32.245Z,21.03
2019-01-24T00:46:35.501Z,20.83
2019-01-24T00:49:39.744Z,22.07
2019-01-24T00:52:43.002Z,22.80
2019-01-24T00:55:46.253Z,20.87
2019-01-24T00:58:50.434Z,21.87
2019-01-24T01:01:53.696Z,21.37
2019-01-24T01:04:57.858Z,20.67
2019-01-24T01:08:02.065Z,21.60
2019-01-24T01:11:06.290Z,24.27
2019-01-24T01:14:09.553Z,21.77
2019-01-24T01:17:13.422Z,23.17
2019-01-24T01:20:19.474Z,20.60
2019-01-24T01:23:22.738Z,22.33
2019-01-24T01:26:25.995Z,21.40
2019-01-24T01:29:29.256Z,23.07
2019-01-24T01:32:32.505Z,22.50
2019-01-24T01:35:41.477Z,20.73
2019-01-24T01:38:44.742Z,19.77
2019-01-24T01:41:47.991Z,21.83
2019-01-24T01:44:51.254Z,23.60
2019-01-24T01:47:56.149Z,21.73
2019-01-24T01:51:00.298Z,22.70
2019-01-24T01:54:04.528Z,20.53
2019-01-24T01:57:07.777Z,23.63
2019-01-24T02:00:21.736Z,20.43
2019-01-24T02:03:25.985Z,22.33
2019-01-24T02:06:29.251Z,22.73
2019-01-24T02:09:32.522Z,22.47
2019-01-24T02:12:36.668Z,23.90
2019-01-24T02:15:41.810Z,21.93
2019-01-24T02:18:45.067Z,22.50
2019-01-24T02:21:50.257Z,19.80
2019-01-24T02:24:53.535Z,23.23
2019-01-24T02:27:56.786Z,19.73
2019-01-24T02:31:00.038Z,23.37
2019-01-24T02:34:03.355Z,22.50
2019-01-24T02:37:06.596Z,22.37
2019-01-24T02:40:10.202Z,24.33
2019-01-24T02:43:15.375Z,22.87
2019-01-24T02:46:18.650Z,22.07
2019-01-24T02:49:23.812Z,22.27
2019-01-24T02:52:30.954Z,21.93
2019-01-24T02:55:36.090Z,21.83
2019-01-24T02:58:39.358Z,20.77
2019-01-24T03:01:42.622Z,23.83
2019-01-24T03:04:45.888Z,22.80
2019-01-24T03:07:49.309Z,21.60
2019-01-24T03:10:52.583Z,22.27
2019-01-24T03:13:56.718Z,22.77
2019-01-24T03:17:01.865Z,24.20
2019-01-24T03:20:08.127Z,22.10
2019-01-24T03:23:11.381Z,22.40
2019-01-24T03:26:14.645Z,25.43
2019-01-24T03:29:19.882Z,24.13
2019-01-24T03:32:24.015Z,24.53
2019-01-24T03:35:27.275Z,19.67
2019-01-24T03:38:30.534Z,23.63
2019-01-24T03:41:33.810Z,21.77
2019-01-24T03:44:40.139Z,21.50
2019-01-24T03:47:45.365Z,24.33
2019-01-24T03:50:48.630Z,22.67
2019-01-24T03:53:51.888Z,24.67
2019-01-24T03:56:56.082Z,23.73
2019-01-24T03:59:59.348Z,22.10
2019-01-24T04:03:02.609Z,25.13
2019-01-24T04:06:06.831Z,22.93
2019-01-24T04:09:10.093Z,23.30
2019-01-24T04:12:13.368Z,20.40
2019-01-24T04:15:19.255Z,25.57
2019-01-24T04:18:24.473Z,21.83
2019-01-24T04:21:27.741Z,23.60
2019-01-24T04:24:31.018Z,22.37
2019-01-24T04:27:34.370Z,24.07
2019-01-24T04:30:37.640Z,22.97
2019-01-24T04:33:40.891Z,21.90
2019-01-24T04:36:46.100Z,22.70
2019-01-24T04:39:49.349Z,23.47
2019-01-24T04:42:52.605Z,21.27
2019-01-24T04:45:55.875Z,22.23
2019-01-24T04:48:59.155Z,26.40
2019-01-24T04:52:04.418Z,22.73
2019-01-24T04:55:10.139Z,21.90
2019-01-24T04:58:13.386Z,22.70
2019-01-24T05:01:17.591Z,24.43
2019-01-24T05:04:20.853Z,23.20
2019-01-24T05:07:24.114Z,22.70
2019-01-24T05:10:33.120Z,22.57
2019-01-24T05:13:36.375Z,22.43
2019-01-24T05:16:41.538Z,23.27
2019-01-24T05:19:45.851Z,23.80
2019-01-24T05:22:50.082Z,22.03
2019-01-24T05:25:54.236Z,24.03
2019-01-24T05:28:57.487Z,23.13
2019-01-24T05:32:00.744Z,22.47
2019-01-24T05:35:04.878Z,22.53
2019-01-24T05:38:09.113Z,21.40
2019-01-24T05:41:12.373Z,23.40
2019-01-24T05:44:16.523Z,22.77
2019-01-24T05:47:20.746Z,24.87
2019-01-24T05:50:24.562Z,22.57
2019-01-24T05:53:27.936Z,23.43
2019-01-24T05:56:31.254Z,20.87
2019-01-24T05:59:34.510Z,23.47
2019-01-24T06:02:37.771Z,23.30
2019-01-24T06:05:42.085Z,21.80
2019-01-24T06:08:46.271Z,22.87
2019-01-24T06:11:49.530Z,22.70
2019-01-24T06:14:52.800Z,23.97
2019-01-24T06:18:03.438Z,23.47
2019-01-24T06:21:06.706Z,23.07
2019-01-24T06:24:09.958Z,23.83
2019-01-24T06:27:13.220Z,22.13
2019-01-24T06:30:21.609Z,22.80
2019-01-24T06:33:24.878Z,20.57
2019-01-24T06:36:29.051Z,22.87
2019-01-24T06:39:32.315Z,22.10
2019-01-24T06:42:35.579Z,20.43
2019-01-24T06:45:39.636Z,22.37
2019-01-24T06:48:44.794Z,22.33
2019-01-24T06:51:49.010Z,22.10
2019-01-24T06:54:54.240Z,21.77
2019-01-24T06:57:57.505Z,22.33
2019-01-24T07:01:00.786Z,22.93
2019-01-24T07:04:04.039Z,21.23
2019-01-24T07:07:07.310Z,22.07
2019-01-24T07:10:18.861Z,21.77
2019-01-24T07:13:22.123Z,21.60
2019-01-24T07:16:25.393Z,21.80
2019-01-24T07:19:28.649Z,21.30
2019-01-24T07:22:31.931Z,22.07
2019-01-24T07:25:37.076Z,20.77
2019-01-24T07:28:42.292Z,21.70
2019-01-24T07:31:45.616Z,22.20
2019-01-24T07:34:48.897Z,21.13
2019-01-24T07:37:52.183Z,21.23
2019-01-24T07:40:55.433Z,21.73
2019-01-24T07:43:58.711Z,23.20
2019-01-24T07:47:01.994Z,21.93
2019-01-24T07:50:12.307Z,23.03
2019-01-24T07:53:16.643Z,20.87
2019-01-24T07:56:19.896Z,21.07
2019-01-24T07:59:23.170Z,21.60
2019-01-24T08:02:26.437Z,23.83
2019-01-24T08:05:31.623Z,20.77
2019-01-24T08:08:34.900Z,23.40
2019-01-24T08:11:40.114Z,21.10
2019-01-24T08:14:43.385Z,22.33
2019-01-24T08:17:46.660Z,19.93
2019-01-24T08:20:49.913Z,19.90
2019-01-24T08:23:54.106Z,21.07
2019-01-24T08:26:57.390Z,24.27
2019-01-24T08:30:01.715Z,22.33
2019-01-24T08:33:12.810Z,21.27
2019-01-24T08:36:16.084Z,23.93
2019-01-24T08:39:19.387Z,21.20
2019-01-24T08:42:22.654Z,21.13
2019-01-24T08:45:27.841Z,22.40
2019-01-24T08:48:31.129Z,22.33
2019-01-24T08:51:34.421Z,23.27
2019-01-24T08:54:37.719Z,20.93
2019-01-24T08:57:41.012Z,22.97
2019-01-24T09:00:45.310Z,22.57
2019-01-24T09:03:49.671Z,20.97
2019-01-24T09:06:53.977Z,22.00
2019-01-24T09:09:57.257Z,22.57
2019-01-24T09:13:00.563Z,20.93
2019-01-24T09:16:03.848Z,21.57
2019-01-24T09:19:07.161Z,20.40
2019-01-24T09:22:17.117Z,23.47
2019-01-24T09:25:20.442Z,22.63
2019-01-24T09:28:24.631Z,22.47
2019-01-24T09:31:27.937Z,19.60
2019-01-24T09:34:33.258Z,22.10
2019-01-24T09:37:36.554Z,21.53
2019-01-24T09:40:39.843Z,21.70
2019-01-24T09:43:43.143Z,20.90
2019-01-24T09:46:46.398Z,22.13
2019-01-24T09:49:52.602Z,21.20
2019-01-24T09:52:56.926Z,21.27
2019-01-24T09:56:00.212Z,19.73
2019-01-24T09:59:03.513Z,22.67
2019-01-24T10:02:13.554Z,19.97
2019-01-24T10:05:16.887Z,20.83
2019-01-24T10:08:20.168Z,19.63
2019-01-24T10:11:25.498Z,20.13
2019-01-24T10:14:29.826Z,20.37
2019-01-24T10:17:33.805Z,20.20
2019-01-24T10:20:37.069Z,22.10
2019-01-24T10:23:41.352Z,21.00
2019-01-24T10:26:54.030Z,19.60
2019-01-24T10:29:58.185Z,20.80
2019-01-24T10:33:01.485Z,19.43
2019-01-24T10:36:04.767Z,20.00
2019-01-24T10:39:09.243Z,20.47
2019-01-24T10:42:12.607Z,18.03
2019-01-24T10:45:18.155Z,20.00
2019-01-24T10:48:21.445Z,22.10
2019-01-24T10:51:27.802Z,19.67
2019-01-24T10:54:32.037Z,19.30
2019-01-24T10:57:35.309Z,18.47
2019-01-24T11:00:39.305Z,19.93
2019-01-24T11:03:42.644Z,18.10
2019-01-24T11:06:51.771Z,18.70
2019-01-24T11:09:55.997Z,16.20
2019-01-24T11:12:59.293Z,17.00
2019-01-24T11:16:02.594Z,19.30
2019-01-24T11:19:06.909Z,16.83
2019-01-24T11:22:10.198Z,18.10
2019-01-24T11:25:17.106Z,19.50
2019-01-24T11:28:27.464Z,16.30
2019-01-24T11:31:30.926Z,15.50
2019-01-24T11:34:41.018Z,16.03
2019-01-24T11:37:44.296Z,16.80
2019-01-24T11:40:47.598Z,18.13
2019-01-24T11:43:50.869Z,18.53
2019-01-24T11:46:54.165Z,16.47
2019-01-24T11:49:57.473Z,17.73
2019-01-24T11:53:01.777Z,16.70
2019-01-24T11:56:11.845Z,15.50
2019-01-24T11:59:16.165Z,15.70
2019-01-24T12:02:20.473Z,14.43
2019-01-24T12:05:23.794Z,16.73
2019-01-24T12:08:28.094Z,16.53
2019-01-24T12:11:31.389Z,14.47
2019-01-24T12:14:34.692Z,15.77
2019-01-24T12:17:37.980Z,15.50
2019-01-24T12:20:43.129Z,14.23
2019-01-24T12:23:46.435Z,15.33
2019-01-24T12:26:49.707Z,14.80
2019-01-24T12:29:54.042Z,15.17
2019-01-24T12:32:57.764Z,15.07
2019-01-24T12:36:01.045Z,15.90
2019-01-24T12:39:06.856Z,13.43
2019-01-24T12:42:10.107Z,14.63
2019-01-24T12:45:16.028Z,15.10
2019-01-24T12:48:21.199Z,14.30
2019-01-24T12:51:25.520Z,13.60
2019-01-24T12:54:35.563Z,13.07
2019-01-24T12:57:38.855Z,13.43
2019-01-24T13:00:43.969Z,13.67
2019-01-24T13:03:47.312Z,13.87
2019-01-24T13:06:50.575Z,14.10
2019-01-24T13:09:53.942Z,13.63
2019-01-24T13:12:58.220Z,14.10
2019-01-24T13:16:01.516Z,12.10
2019-01-24T13:19:04.798Z,14.67
2019-01-24T13:22:08.089Z,14.00
2019-01-24T13:25:14.666Z,14.43
2019-01-24T13:28:17.959Z,14.27
2019-01-24T13:31:21.274Z,13.90
2019-01-24T13:34:25.587Z,12.30
2019-01-24T13:37:29.891Z,12.17
2019-01-24T13:40:33.207Z,13.47
2019-01-24T13:43:38.539Z,12.37
2019-01-24T13:46:41.862Z,11.60
2019-01-24T13:49:45.233Z,11.83
2019-01-24T13:52:50.474Z,12.50
2019-01-24T13:55:55.843Z,12.40
2019-01-24T13:59:01.785Z,11.87
2019-01-24T14:02:06.129Z,13.13
2019-01-24T14:05:12.774Z,12.50
2019-01-24T14:08:16.100Z,12.17
2019-01-24T14:11:20.343Z,11.27
2019-01-24T14:14:23.909Z,13.23
2019-01-24T14:17:28.102Z,11.20
2019-01-24T14:20:31.410Z,10.83
2019-01-24T14:23:41.460Z,11.53
2019-01-24T14:26:46.810Z,11.33
2019-01-24T14:29:50.106Z,12.17
2019-01-24T14:32:53.453Z,11.43
2019-01-24T14:35:56.721Z,11.23
2019-01-24T14:39:00.003Z,12.23
2019-01-24T14:42:03.298Z,11.67
2019-01-24T14:45:22.398Z,12.83
2019-01-24T14:48:26.680Z,12.50
2019-01-24T14:51:29.970Z,11.10
2019-01-24T14:54:33.254Z,10.90
2019-01-24T14:57:36.571Z,10.60
2019-01-24T15:00:45.616Z,12.30
2019-01-24T15:03:48.903Z,12.17
2019-01-24T15:06:53.210Z,11.83
2019-01-24T15:09:56.498Z,10.67
2019-01-24T15:12:59.819Z,11.83
2019-01-24T15:16:08.860Z,10.53
2019-01-24T15:19:18.902Z,13.27
2019-01-24T15:22:22.203Z,11.97
2019-01-24T15:25:31.238Z,11.90
2019-01-24T15:28:34.539Z,11.37
2019-01-24T15:31:37.822Z,10.63
2019-01-24T15:34:41.094Z,10.07
2019-01-24T15:37:44.403Z,11.67
2019-01-24T15:40:49.737Z,10.60
2019-01-24T15:43:53.052Z,10.93
2019-01-24T15:46:56.355Z,11.40
2019-01-24T15:49:59.620Z,10.30
2019-01-24T15:53:05.585Z,10.67
2019-01-24T15:56:08.890Z,11.53
2019-01-24T15:59:19.961Z,12.90
2019-01-24T16:02:24.306Z,11.23
2019-01-24T16:05:31.295Z,13.13
2019-01-24T16:08:34.545Z,11.13
2019-01-24T16:11:38.911Z,10.27
2019-01-24T16:14:44.216Z,10.37
2019-01-24T16:17:47.551Z,10.10
2019-01-24T16:20:52.990Z,10.67
2019-01-24T16:23:56.398Z,12.30
2019-01-24T16:27:00.697Z,10.57
2019-01-24T16:30:06.789Z,12.03
2019-01-24T16:33:10.062Z,12.77
2019-01-24T16:36:13.374Z,10.70
2019-01-24T16:39:16.628Z,11.07
2019-01-24T16:42:19.895Z,10.43
2019-01-24T16:45:27.947Z,10.63
2019-01-24T16:48:31.206Z,10.80
2019-01-24T16:51:34.487Z,12.00
2019-01-24T16:54:37.746Z,10.43
2019-01-24T16:57:42.042Z,12.33
2019-01-24T17:00:46.814Z,12.33
2019-01-24T17:03:50.089Z,10.63
2019-01-24T17:06:55.423Z,10.90
2019-01-24T17:09:58.681Z,12.57
2019-01-24T17:13:02.033Z,11.93
2019-01-24T17:16:05.310Z,10.00
2019-01-24T17:19:09.671Z,10.30
2019-01-24T17:22:12.922Z,12.00
2019-01-24T17:25:17.641Z,11.50
2019-01-24T17:28:21.971Z,10.57
2019-01-24T17:31:25.264Z,10.00
2019-01-24T17:34:32.454Z,10.47
2019-01-24T17:37:41.510Z,10.20
2019-01-24T17:40:44.827Z,11.87
2019-01-24T17:43:50.188Z,10.83
2019-01-24T17:46:53.474Z,10.00
2019-01-24T17:50:00.812Z,11.37
2019-01-24T17:53:04.123Z,9.97
2019-01-24T17:56:07.423Z,11.07
2019-01-24T17:59:10.710Z,10.63
2019-01-24T18:02:18.915Z,10.33
2019-01-24T18:05:22.312Z,11.37
2019-01-24T18:08:31.178Z,10.73
2019-01-24T18:11:30.697Z,9.10
2019-01-24T18:14:34.966Z,10.83
2019-01-24T18:17:38.275Z,9.93
2019-01-24T18:20:41.607Z,11.17
2019-01-24T18:23:45.882Z,9.87
2019-01-24T18:26:49.174Z,10.83
2019-01-24T18:30:01.279Z,11.03
2019-01-24T18:33:04.651Z,9.90
2019-01-24T18:36:08.902Z,11.87
2019-01-24T18:39:15.278Z,11.97
2019-01-24T18:42:20.627Z,10.40
2019-01-24T18:45:28.125Z,11.23
2019-01-24T18:48:33.358Z,11.00
2019-01-24T18:51:36.653Z,11.60
2019-01-24T18:54:39.940Z,10.40
2019-01-24T18:57:43.235Z,10.47
2019-01-24T19:00:53.301Z,11.63
2019-01-24T19:03:56.628Z,10.67
2019-01-24T19:07:00.902Z,10.17
2019-01-24T19:10:06.540Z,10.23
2019-01-24T19:13:09.810Z,11.23
2019-01-24T19:16:14.067Z,9.80
2019-01-24T19:19:17.374Z,11.60
2019-01-24T19:22:23.753Z,10.40
2019-01-24T19:25:29.090Z,10.03
2019-01-24T19:28:32.398Z,11.27
2019-01-24T19:31:35.674Z,9.33
2019-01-24T19:34:42.059Z,11.43
2019-01-24T19:37:47.384Z,9.93
2019-01-24T19:40:51.725Z,10.90
2019-01-24T19:43:57.630Z,11.33
2019-01-24T19:47:02.820Z,9.80
2019-01-24T19:50:11.341Z,10.23
2019-01-24T19:53:14.621Z,11.13
2019-01-24T19:56:23.550Z,9.93
2019-01-24T19:59:26.856Z,11.10
2019-01-24T20:02:30.155Z,10.90
2019-01-24T20:05:33.441Z,9.70
2019-01-24T20:08:36.738Z,10.33
2019-01-24T20:11:39.997Z,9.23
2019-01-24T20:14:43.335Z,11.97
2019-01-24T20:17:47.674Z,10.97
2019-01-24T20:20:50.942Z,10.20
2019-01-24T20:23:54.242Z,10.30
2019-01-24T20:26:57.527Z,10.27
2019-01-24T20:30:06.810Z,11.27
2019-01-24T20:33:10.078Z,12.87
2019-01-24T20:36:13.362Z,10.37
2019-01-24T20:39:19.736Z,12.00
2019-01-24T20:42:23.043Z,10.50
2019-01-24T20:45:26.364Z,12.33
2019-01-24T20:48:29.625Z,11.17
2019-01-24T20:51:32.906Z,9.83
2019-01-24T20:54:36.205Z,10.57
2019-01-24T20:57:40.528Z,12.03
2019-01-24T21:00:43.785Z,10.17
2019-01-24T21:03:47.042Z,10.43
2019-01-24T21:06:52.249Z,9.87
2019-01-24T21:09:55.505Z,12.77
2019-01-24T21:12:58.874Z,10.67
2019-01-24T21:16:02.144Z,10.83
2019-01-24T21:19:07.308Z,11.33
2019-01-24T21:22:14.470Z,10.47
2019-01-24T21:25:24.157Z,10.80
2019-01-24T21:28:29.466Z,10.63
2019-01-24T21:31:32.765Z,12.13
2019-01-24T21:34:38.114Z,10.17
2019-01-24T21:37:42.330Z,11.73
2019-01-24T21:40:45.590Z,11.53
2019-01-24T21:43:48.858Z,11.83
2019-01-24T21:46:52.116Z,11.43
2019-01-24T21:49:55.405Z,10.97
2019-01-24T21:52:58.683Z,9.90
2019-01-24T21:56:02.001Z,12.37
2019-01-24T21:59:05.258Z,12.37
2019-01-24T22:02:08.512Z,12.00
2019-01-24T22:05:12.798Z,12.00
2019-01-24T22:08:25.273Z,11.07
2019-01-24T22:11:29.534Z,11.23
2019-01-24T22:14:33.883Z,11.73
2019-01-24T22:17:42.887Z,11.50
2019-01-24T22:20:46.195Z,12.30
2019-01-24T22:23:49.458Z,11.10
2019-01-24T22:26:53.593Z,12.53
2019-01-24T22:29:59.959Z,11.57
2019-01-24T22:33:10.024Z,11.27
2019-01-24T22:36:14.681Z,11.80
2019-01-24T22:39:19.883Z,10.97
2019-01-24T22:42:24.198Z,11.10
2019-01-24T22:45:27.729Z,11.17
2019-01-24T22:48:31.014Z,11.77
2019-01-24T22:51:36.354Z,10.17
2019-01-24T22:54:39.655Z,12.20
2019-01-24T22:57:43.964Z,11.90
2019-01-24T23:00:53.480Z,12.07
2019-01-24T23:03:56.736Z,12.07
2019-01-24T23:07:00.012Z,11.77
2019-01-24T23:10:08.554Z,12.53
2019-01-24T23:13:11.822Z,11.17
2019-01-24T23:16:15.081Z,12.70
2019-01-24T23:19:18.349Z,12.23
2019-01-24T23:22:22.518Z,11.97
2019-01-24T23:25:27.768Z,12.30
2019-01-24T23:28:31.046Z,12.00
2019-01-24T23:31:36.192Z,11.40
2019-01-24T23:34:40.514Z,11.77
2019-01-24T23:37:43.816Z,12.30
2019-01-24T23:40:50.994Z,11.70
2019-01-24T23:43:55.218Z,11.40
2019-01-24T23:46:59.432Z,12.07
2019-01-24T23:50:02.746Z,13.23
2019-01-24T23:53:06.033Z,10.47
2019-01-24T23:56:09.324Z,11.97
2019-01-24T23:59:12.670Z,10.93
